Time;durP1;ratioP1;P1;durP2;ratioP2;P2;SDS_P1;SDS_P2;PMS_P1;PMS_P2;Temp;Humidity;BMP_temperature;BMP_pressure;BME280_temperature;BME280_humidity;BME280_pressure;Samples;Min_cycle;Max_cycle;Signal;HPM_P1;HPM_P2
2021/03/07 00:01:18;;;;;;;7.95;3.65;;;5.60;99.90;;;;;;1886900;74;21088;-82
2021/03/07 00:03:45;;;;;;;11.73;4.30;;;5.60;99.90;;;;;;1882757;74;21384;-82
2021/03/07 00:06:13;;;;;;;11.90;4.15;;;5.60;99.90;;;;;;1883199;74;21116;-83
2021/03/07 00:08:40;;;;;;;9.48;4.08;;;5.60;99.90;;;;;;1880626;74;21163;-82
2021/03/07 00:11:08;;;;;;;8.18;3.77;;;5.60;99.90;;;;;;1881350;74;21242;-82
2021/03/07 00:13:35;;;;;;;11.20;3.72;;;5.70;99.90;;;;;;1875823;73;21272;-83
2021/03/07 00:16:03;;;;;;;10.05;4.40;;;5.70;99.90;;;;;;1879762;74;21534;-82
2021/03/07 00:18:30;;;;;;;12.25;4.42;;;5.80;99.90;;;;;;1887968;73;21582;-82
2021/03/07 00:20:58;;;;;;;10.08;3.90;;;5.70;99.90;;;;;;1885523;74;21160;-83
2021/03/07 00:23:25;;;;;;;8.88;3.77;;;5.70;99.90;;;;;;1882269;74;21281;-82
2021/03/07 00:25:53;;;;;;;8.23;4.17;;;5.70;99.90;;;;;;1887560;74;21044;-83
2021/03/07 00:28:20;;;;;;;9.85;3.95;;;5.70;99.90;;;;;;1873632;74;21160;-81
2021/03/07 00:30:48;;;;;;;10.70;4.35;;;5.60;99.90;;;;;;1882769;74;21053;-83
2021/03/07 00:33:15;;;;;;;10.43;4.47;;;5.60;99.90;;;;;;1878540;74;21150;-82
2021/03/07 00:35:43;;;;;;;11.48;4.10;;;5.60;99.90;;;;;;1886194;74;21117;-83
2021/03/07 00:38:10;;;;;;;9.58;4.22;;;5.60;99.90;;;;;;1883304;74;21929;-83
2021/03/07 00:40:38;;;;;;;10.95;3.37;;;5.50;99.90;;;;;;1881789;74;21123;-84
2021/03/07 00:43:05;;;;;;;7.90;3.95;;;5.60;99.90;;;;;;1883427;74;21104;-82
2021/03/07 00:45:33;;;;;;;7.87;3.60;;;5.60;99.90;;;;;;1890607;74;21108;-82
2021/03/07 00:48:01;;;;;;;11.80;4.37;;;5.70;99.90;;;;;;1888949;74;21133;-82
2021/03/07 00:50:29;;;;;;;8.65;3.22;;;5.70;99.90;;;;;;1879128;74;21030;-82
2021/03/07 00:52:58;;;;;;;8.93;4.10;;;5.70;99.90;;;;;;1889894;74;21563;-83
2021/03/07 00:55:26;;;;;;;11.70;4.47;;;5.80;99.90;;;;;;1878346;74;21104;-82
2021/03/07 00:57:53;;;;;;;8.30;3.70;;;5.70;99.90;;;;;;1884274;74;21525;-81
2021/03/07 01:00:24;;;;;;;8.50;4.20;;;5.80;99.90;;;;;;1878643;74;21982;-81
2021/03/07 01:02:51;;;;;;;7.87;4.35;;;5.80;99.90;;;;;;1879541;74;21081;-83
2021/03/07 01:05:20;;;;;;;11.03;4.25;;;5.70;99.90;;;;;;1887926;74;21154;-82
2021/03/07 01:07:47;;;;;;;11.68;4.05;;;5.70;99.90;;;;;;1884599;74;21322;-82
2021/03/07 01:10:18;;;;;;;7.15;3.75;;;5.70;99.90;;;;;;1882182;74;21025;-82
2021/03/07 01:12:48;;;;;;;10.28;3.75;;;5.80;99.90;;;;;;1883688;74;21069;-82
2021/03/07 01:15:17;;;;;;;7.90;3.92;;;5.90;99.90;;;;;;1880170;74;21289;-85
2021/03/07 01:17:44;;;;;;;12.10;4.10;;;5.90;99.90;;;;;;1881074;74;21598;-83
2021/03/07 01:20:15;;;;;;;12.25;4.20;;;6.00;99.90;;;;;;1880949;74;21065;-83
2021/03/07 01:22:43;;;;;;;12.70;4.30;;;6.00;99.90;;;;;;1879795;74;21513;-82
2021/03/07 01:25:11;;;;;;;15.50;4.87;;;6.00;99.90;;;;;;1890594;74;21676;-82
2021/03/07 01:27:39;;;;;;;13.83;4.78;;;6.10;99.90;;;;;;1884272;73;21080;-82
2021/03/07 01:30:09;;;;;;;16.60;5.10;;;6.10;99.90;;;;;;1889341;74;21165;-81
2021/03/07 01:32:37;;;;;;;10.85;4.40;;;6.10;99.90;;;;;;1884671;74;21127;-81
2021/03/07 01:35:06;;;;;;;11.75;4.47;;;6.10;99.90;;;;;;1899430;74;21270;-82
2021/03/07 01:37:33;;;;;;;8.85;4.05;;;6.20;99.90;;;;;;1887116;74;21387;-81
2021/03/07 01:40:01;;;;;;;8.40;4.60;;;6.20;99.90;;;;;;1880705;74;21062;-81
2021/03/07 01:42:29;;;;;;;13.15;5.10;;;6.30;99.90;;;;;;1884902;74;21030;-81
2021/03/07 01:44:56;;;;;;;10.38;4.70;;;6.30;99.90;;;;;;1891571;73;21093;-81
2021/03/07 01:47:32;;;;;;;13.70;4.28;;;6.30;99.90;;;;;;1890785;73;21145;-81
2021/03/07 01:50:01;;;;;;;9.50;4.03;;;6.30;99.90;;;;;;1886213;74;21248;-84
2021/03/07 01:52:28;;;;;;;10.50;3.85;;;6.30;99.90;;;;;;1880382;74;21040;-82
2021/03/07 01:54:56;;;;;;;9.75;4.17;;;6.30;99.90;;;;;;1883817;74;21586;-82
2021/03/07 01:57:26;;;;;;;13.45;3.95;;;6.40;99.90;;;;;;1878795;74;21141;-82
2021/03/07 01:59:56;;;;;;;7.90;4.10;;;6.40;99.90;;;;;;1884463;74;21167;-83
2021/03/07 02:02:24;;;;;;;6.08;3.52;;;6.50;99.90;;;;;;1877789;74;21077;-83
2021/03/07 02:04:53;;;;;;;10.28;3.85;;;6.50;99.90;;;;;;1885457;74;21195;-84
2021/03/07 02:07:20;;;;;;;10.50;4.03;;;6.40;99.90;;;;;;1881043;74;21171;-83
2021/03/07 02:09:50;;;;;;;15.38;3.98;;;6.50;99.90;;;;;;1887828;73;21146;-81
2021/03/07 02:12:20;;;;;;;10.90;4.12;;;6.50;99.90;;;;;;1878182;74;21862;-82
2021/03/07 02:14:51;;;;;;;7.90;3.60;;;6.50;99.90;;;;;;1886335;74;21266;-81
2021/03/07 02:17:19;;;;;;;8.88;4.03;;;6.50;99.90;;;;;;1881663;74;21140;-81
2021/03/07 02:19:48;;;;;;;9.93;4.22;;;6.50;99.90;;;;;;1891549;74;21065;-82
2021/03/07 02:22:18;;;;;;;9.55;3.80;;;6.50;99.90;;;;;;1888957;74;21128;-82
2021/03/07 02:24:46;;;;;;;8.33;3.98;;;6.50;99.90;;;;;;1880170;74;21066;-81
2021/03/07 02:27:14;;;;;;;6.97;3.72;;;6.50;99.90;;;;;;1867918;74;21617;-82
2021/03/07 02:29:42;;;;;;;10.03;3.80;;;6.50;99.90;;;;;;1882135;74;21143;-82
2021/03/07 02:32:21;;;;;;;10.68;3.33;;;6.50;99.90;;;;;;1882464;74;21151;-82
2021/03/07 02:34:55;;;;;;;8.93;3.60;;;6.60;99.90;;;;;;1880219;74;22078;-83
2021/03/07 02:37:24;;;;;;;9.95;3.65;;;6.60;99.90;;;;;;1871723;74;21084;-83
2021/03/07 02:39:53;;;;;;;9.35;3.50;;;6.60;99.90;;;;;;1883472;74;21804;-83
2021/03/07 02:42:26;;;;;;;14.25;4.03;;;6.60;99.90;;;;;;1879934;74;21685;-83
2021/03/07 02:45:00;;;;;;;10.03;3.65;;;6.70;99.90;;;;;;1872906;74;21133;-82
2021/03/07 02:47:30;;;;;;;7.42;3.20;;;6.70;99.90;;;;;;1876503;74;21599;-83
2021/03/07 02:50:01;;;;;;;6.70;3.00;;;6.60;99.90;;;;;;1878857;74;21100;-83
2021/03/07 02:52:28;;;;;;;7.17;2.90;;;6.60;99.90;;;;;;1878817;74;21080;-82
2021/03/07 02:54:57;;;;;;;6.35;2.45;;;6.50;99.90;;;;;;1884458;74;21575;-82
2021/03/07 02:57:26;;;;;;;8.10;2.58;;;6.50;99.90;;;;;;1878515;74;21077;-82
2021/03/07 02:59:56;;;;;;;8.95;2.77;;;6.50;99.90;;;;;;1880475;74;21089;-82
2021/03/07 03:02:25;;;;;;;4.22;2.60;;;6.50;99.90;;;;;;1883321;74;21191;-83
2021/03/07 03:04:54;;;;;;;8.70;2.60;;;6.50;99.90;;;;;;1880355;74;21128;-82
2021/03/07 03:07:22;;;;;;;6.42;2.42;;;6.50;99.90;;;;;;1881456;73;21139;-83
2021/03/07 03:09:52;;;;;;;6.07;2.57;;;6.50;99.90;;;;;;1872663;74;21045;-82
2021/03/07 03:12:21;;;;;;;6.10;2.83;;;6.50;99.90;;;;;;1889671;74;21100;-83
2021/03/07 03:14:48;;;;;;;5.50;3.30;;;6.50;99.90;;;;;;1879792;74;21775;-82
2021/03/07 03:17:16;;;;;;;8.73;2.47;;;6.50;99.90;;;;;;1884745;74;21062;-81
2021/03/07 03:19:46;;;;;;;5.67;2.20;;;6.50;99.90;;;;;;1878477;74;21642;-82
2021/03/07 03:22:13;;;;;;;6.87;3.05;;;6.50;99.90;;;;;;1882995;74;21517;-83
2021/03/07 03:24:41;;;;;;;9.80;2.80;;;6.50;99.90;;;;;;1877507;74;21152;-82
2021/03/07 03:27:10;;;;;;;6.30;2.98;;;6.40;99.90;;;;;;1881289;74;21123;-81
2021/03/07 03:29:39;;;;;;;6.30;2.80;;;6.20;99.90;;;;;;1882325;74;21216;-82
2021/03/07 03:32:09;;;;;;;7.30;2.60;;;6.20;99.90;;;;;;1884996;74;21622;-81
2021/03/07 03:37:12;;;;;;;5.62;2.70;;;6.10;99.90;;;;;;1918764;73;21069;-79
2021/03/07 03:39:44;;;;;;;6.65;2.77;;;6.20;99.90;;;;;;1912086;73;21025;-79
2021/03/07 03:47:39;;;;;;;9.48;3.30;;;6.20;99.90;;;;;;1874961;74;21124;-81
2021/03/07 03:50:12;;;;;;;6.08;2.87;;;6.20;99.90;;;;;;1899309;74;21135;-82
2021/03/07 03:52:41;;;;;;;10.78;3.00;;;6.10;99.90;;;;;;1893642;74;21316;-80
2021/03/07 03:55:20;;;;;;;5.03;3.00;;;6.10;99.90;;;;;;1881780;74;21175;-80
2021/03/07 04:00:46;;;;;;;7.12;3.20;;;6.10;99.90;;;;;;1864547;74;21163;-79
2021/03/07 04:03:17;;;;;;;8.43;3.00;;;6.20;99.90;;;;;;1837646;77;21222;-78
2021/03/07 04:15:51;;;;;;;8.57;3.20;;;6.30;99.90;;;;;;1881594;75;21270;-80
2021/03/07 04:22:17;;;;;;;5.03;2.77;;;6.10;99.90;;;;;;1839996;76;21162;-79
2021/03/07 04:25:00;;;;;;;8.73;3.10;;;6.20;99.90;;;;;;1800126;78;21102;-79
2021/03/07 04:27:30;;;;;;;7.20;2.98;;;6.20;99.90;;;;;;1788654;78;21172;-78
2021/03/07 04:33:24;;;;;;;9.05;2.90;;;6.30;99.90;;;;;;1833467;77;21236;-80
2021/03/07 04:35:59;;;;;;;;;;;6.40;99.90;;;;;;1884137;75;21069;-78
2021/03/07 04:38:29;;;;;;;6.80;3.15;;;6.50;99.90;;;;;;1882528;75;20123;-78
2021/03/07 04:40:56;;;;;;;7.35;2.75;;;6.50;99.90;;;;;;1873242;75;21246;-78
2021/03/07 04:43:51;;;;;;;6.37;2.85;;;6.40;99.90;;;;;;1881351;74;21351;-79
2021/03/07 04:46:23;;;;;;;6.42;2.70;;;6.40;99.90;;;;;;1878266;74;21138;-78
2021/03/07 04:48:51;;;;;;;7.20;3.20;;;6.30;99.90;;;;;;1882205;75;21473;-78
2021/03/07 04:51:19;;;;;;;5.33;2.75;;;6.30;99.90;;;;;;1881092;75;21049;-78
2021/03/07 04:53:46;;;;;;;4.30;2.25;;;6.40;99.90;;;;;;1875928;74;21076;-79
2021/03/07 04:56:14;;;;;;;7.45;2.72;;;6.40;99.90;;;;;;1876606;75;21046;-79
2021/03/07 04:58:42;;;;;;;5.90;2.30;;;6.40;99.90;;;;;;1883570;74;21143;-79
2021/03/07 05:01:09;;;;;;;7.22;3.12;;;6.40;99.90;;;;;;1884656;75;21053;-79
2021/03/07 05:03:37;;;;;;;7.58;2.60;;;6.40;99.90;;;;;;1880106;75;21460;-79
2021/03/07 05:06:05;;;;;;;6.97;2.85;;;6.50;99.90;;;;;;1877067;74;21049;-79
2021/03/07 05:08:33;;;;;;;5.62;2.37;;;6.50;99.90;;;;;;1884410;74;21162;-79
2021/03/07 05:11:03;;;;;;;6.28;2.37;;;6.50;99.80;;;;;;1883051;75;21499;-78
2021/03/07 05:13:30;;;;;;;5.58;2.58;;;6.50;99.60;;;;;;1881217;75;21154;-79
2021/03/07 05:15:57;;;;;;;6.90;2.30;;;6.50;99.60;;;;;;1876005;75;21045;-81
2021/03/07 05:18:25;;;;;;;4.78;2.30;;;6.60;99.80;;;;;;1879288;75;21625;-78
2021/03/07 05:20:53;;;;;;;8.00;2.90;;;6.60;99.60;;;;;;1880419;75;21049;-81
2021/03/07 05:23:20;;;;;;;6.60;2.70;;;6.60;99.70;;;;;;1875845;75;21131;-80
2021/03/07 05:25:48;;;;;;;10.13;2.60;;;6.60;99.60;;;;;;1877822;74;21357;-80
2021/03/07 05:28:15;;;;;;;4.28;2.30;;;6.60;99.70;;;;;;1871260;75;21111;-80
2021/03/07 05:30:43;;;;;;;6.22;2.95;;;6.50;99.60;;;;;;1877394;75;21099;-80
2021/03/07 05:33:11;;;;;;;7.58;2.60;;;6.50;99.90;;;;;;1882501;75;21081;-81
2021/03/07 05:35:39;;;;;;;5.97;2.60;;;6.50;99.90;;;;;;1877249;74;21161;-80
2021/03/07 05:38:06;;;;;;;8.40;2.60;;;6.30;99.90;;;;;;1884445;75;21105;-79
2021/03/07 05:40:35;;;;;;;6.62;2.80;;;6.30;99.90;;;;;;1878493;75;21436;-79
2021/03/07 05:43:05;;;;;;;5.97;2.60;;;6.50;99.90;;;;;;1881082;75;21089;-80
2021/03/07 05:45:33;;;;;;;8.73;2.85;;;6.40;99.90;;;;;;1875776;74;21477;-79
2021/03/07 05:48:01;;;;;;;8.38;3.22;;;6.40;99.90;;;;;;1874803;74;21112;-79
2021/03/07 05:50:29;;;;;;;8.23;2.58;;;6.40;99.90;;;;;;1874077;75;21023;-79
2021/03/07 05:52:58;;;;;;;7.17;3.17;;;6.40;99.90;;;;;;1883327;75;21108;-78
2021/03/07 05:55:27;;;;;;;7.80;2.72;;;6.50;99.90;;;;;;1876202;73;21066;-79
2021/03/07 05:58:02;;;;;;;6.25;3.02;;;6.50;99.90;;;;;;1871902;75;21123;-78
2021/03/07 06:00:30;;;;;;;5.47;3.00;;;6.40;99.90;;;;;;1866243;75;21104;-80
2021/03/07 06:02:58;;;;;;;6.20;3.15;;;6.50;99.90;;;;;;1873274;74;21154;-79
2021/03/07 06:05:25;;;;;;;6.35;2.98;;;6.50;99.90;;;;;;1880214;74;21383;-79
2021/03/07 06:07:53;;;;;;;7.50;3.30;;;6.50;99.90;;;;;;1873648;74;21042;-78
2021/03/07 06:10:23;;;;;;;9.10;3.00;;;6.50;99.90;;;;;;1881392;75;21041;-79
2021/03/07 06:13:03;;;;;;;5.58;3.12;;;6.50;99.90;;;;;;1879261;74;21116;-79
2021/03/07 06:15:30;;;;;;;5.20;3.00;;;6.40;99.90;;;;;;1874269;74;21557;-81
2021/03/07 06:17:58;;;;;;;4.97;2.62;;;6.40;99.90;;;;;;1872001;75;21138;-78
2021/03/07 06:20:28;;;;;;;6.42;3.00;;;6.40;99.90;;;;;;1881451;75;21100;-80
2021/03/07 06:22:59;;;;;;;6.37;2.80;;;6.30;99.90;;;;;;1877162;75;21226;-79
2021/03/07 06:25:29;;;;;;;9.18;3.10;;;6.30;99.90;;;;;;1880138;74;21096;-79
2021/03/07 06:27:58;;;;;;;5.67;2.77;;;6.40;99.90;;;;;;1878296;75;21181;-79
2021/03/07 06:30:29;;;;;;;7.75;3.40;;;6.30;99.90;;;;;;1876258;74;21045;-79
2021/03/07 06:33:01;;;;;;;8.05;2.95;;;6.30;99.90;;;;;;1870441;75;21077;-79
2021/03/07 06:35:32;;;;;;;5.58;2.92;;;6.30;99.90;;;;;;1870916;74;21124;-79
2021/03/07 06:38:07;;;;;;;6.95;2.98;;;6.40;99.90;;;;;;1873447;74;21053;-79
2021/03/07 06:40:42;;;;;;;5.87;3.35;;;6.40;99.90;;;;;;1879674;74;21187;-79
2021/03/07 06:43:25;;;;;;;7.20;3.30;;;6.50;99.90;;;;;;1875839;75;21195;-81
2021/03/07 06:45:52;;;;;;;6.03;2.85;;;6.40;99.90;;;;;;1873868;75;21193;-80
2021/03/07 06:48:20;;;;;;;6.22;3.35;;;6.50;99.90;;;;;;1878278;74;21112;-79
2021/03/07 06:50:59;;;;;;;4.75;2.95;;;6.50;99.90;;;;;;1879196;75;21353;-78
2021/03/07 06:53:41;;;;;;;7.67;3.40;;;6.50;99.90;;;;;;1875745;75;21164;-79
2021/03/07 06:56:09;;;;;;;7.42;3.20;;;6.40;99.90;;;;;;1876284;75;21053;-80
2021/03/07 06:58:36;;;;;;;8.45;3.40;;;6.50;99.90;;;;;;1872361;75;21164;-80
2021/03/07 07:01:07;;;;;;;8.48;3.10;;;6.50;99.90;;;;;;1873960;74;21093;-81
2021/03/07 07:03:34;;;;;;;9.30;3.10;;;6.40;99.90;;;;;;1881349;74;21173;-81
2021/03/07 07:06:02;;;;;;;7.35;3.45;;;6.40;99.90;;;;;;1883117;75;21094;-81
2021/03/07 07:08:47;;;;;;;6.80;3.52;;;6.40;99.90;;;;;;1873397;75;21174;-79
2021/03/07 07:11:14;;;;;;;5.62;3.50;;;6.50;99.90;;;;;;1877992;75;21178;-76
2021/03/07 07:13:47;;;;;;;9.25;3.67;;;6.50;99.90;;;;;;1878376;74;21082;-77
2021/03/07 07:16:15;;;;;;;6.47;2.87;;;6.50;99.90;;;;;;1873997;75;21123;-78
2021/03/07 07:18:44;;;;;;;6.83;3.25;;;6.40;99.90;;;;;;1883272;75;21239;-78
2021/03/07 07:21:17;;;;;;;7.35;3.95;;;6.50;99.90;;;;;;1874546;74;21179;-79
2021/03/07 07:23:49;;;;;;;9.48;3.30;;;6.60;99.90;;;;;;1872098;75;21223;-79
2021/03/07 07:26:15;;;;;;;6.08;3.60;;;6.60;99.90;;;;;;1881411;75;21169;-79
2021/03/07 07:28:42;;;;;;;9.38;3.52;;;6.60;99.90;;;;;;1883138;75;21522;-78
2021/03/07 07:31:19;;;;;;;7.78;3.90;;;6.70;99.90;;;;;;1875143;75;21072;-79
2021/03/07 07:34:03;;;;;;;10.90;3.47;;;6.70;99.90;;;;;;1876503;74;22116;-78
2021/03/07 07:36:34;;;;;;;8.08;3.62;;;6.70;99.80;;;;;;1873415;74;21482;-79
2021/03/07 07:39:04;;;;;;;8.33;3.62;;;6.70;99.90;;;;;;1877826;75;21489;-79
2021/03/07 07:41:35;;;;;;;10.38;3.58;;;6.80;99.80;;;;;;1880409;74;21155;-80
2021/03/07 07:44:04;;;;;;;9.15;3.55;;;6.90;99.80;;;;;;1874994;74;21128;-78
2021/03/07 07:46:32;;;;;;;7.03;3.35;;;6.90;99.50;;;;;;1870519;74;21107;-78
2021/03/07 07:49:00;;;;;;;7.20;4.00;;;6.90;99.40;;;;;;1877749;75;22407;-78
2021/03/07 07:51:37;;;;;;;5.85;3.40;;;6.90;99.40;;;;;;1875717;75;21065;-78
2021/03/07 07:54:06;;;;;;;11.22;4.35;;;7.00;99.40;;;;;;1871228;74;21183;-78
2021/03/07 07:56:37;;;;;;;9.65;4.10;;;7.00;99.20;;;;;;1875427;75;21180;-78
2021/03/07 07:59:07;;;;;;;12.35;4.03;;;7.00;99.00;;;;;;1869080;75;21129;-79
2021/03/07 08:01:52;;;;;;;8.33;3.95;;;7.00;99.00;;;;;;1877255;75;21167;-79
2021/03/07 08:04:32;;;;;;;6.10;3.70;;;7.00;98.90;;;;;;1873287;74;21180;-79
2021/03/07 08:07:00;;;;;;;7.85;4.00;;;7.00;99.10;;;;;;1870134;75;21049;-77
2021/03/07 08:09:44;;;;;;;6.30;3.70;;;7.00;99.20;;;;;;1875162;74;21049;-79
2021/03/07 08:12:43;;;;;;;9.03;4.40;;;6.90;99.00;;;;;;1872440;75;21156;-77
2021/03/07 08:15:29;;;;;;;8.70;4.25;;;6.90;99.00;;;;;;1886499;75;21206;-80
2021/03/07 08:17:58;;;;;;;8.93;4.03;;;6.80;99.00;;;;;;1870807;75;21093;-77
2021/03/07 08:20:44;;;;;;;8.83;3.77;;;6.90;99.10;;;;;;1870440;75;21123;-77
2021/03/07 08:23:17;;;;;;;6.37;4.28;;;6.90;99.10;;;;;;1874501;75;21143;-78
2021/03/07 08:25:54;;;;;;;7.90;4.10;;;6.90;99.10;;;;;;1871331;75;21249;-79
2021/03/07 08:28:35;;;;;;;7.22;4.22;;;6.90;98.90;;;;;;1874333;74;21131;-77
2021/03/07 08:31:05;;;;;;;9.20;4.15;;;7.00;98.80;;;;;;1870959;75;21239;-81
2021/03/07 08:33:37;;;;;;;8.30;4.28;;;7.00;99.00;;;;;;1875127;75;21874;-78
2021/03/07 08:36:15;;;;;;;8.40;4.20;;;7.10;99.00;;;;;;1868608;75;21195;-82
2021/03/07 08:38:52;;;;;;;9.13;3.80;;;7.10;99.00;;;;;;1868929;75;21460;-82
2021/03/07 08:41:25;;;;;;;7.50;4.50;;;7.10;98.80;;;;;;1873064;75;21104;-79
2021/03/07 08:43:57;;;;;;;8.90;4.60;;;7.00;98.70;;;;;;1862676;75;21183;-78
2021/03/07 08:46:26;;;;;;;10.93;4.62;;;7.00;98.90;;;;;;1872941;75;21583;-85
2021/03/07 08:48:57;;;;;;;6.42;4.67;;;7.10;98.70;;;;;;1866736;75;21049;-79
2021/03/07 08:51:33;;;;;;;10.75;4.60;;;7.10;98.60;;;;;;1850683;75;21112;-79
2021/03/07 08:54:09;;;;;;;7.60;4.60;;;7.10;98.50;;;;;;1867879;74;21141;-79
2021/03/07 08:56:39;;;;;;;9.90;5.08;;;7.10;98.60;;;;;;1880819;75;21093;-79
2021/03/07 08:59:08;;;;;;;9.03;4.50;;;7.20;98.70;;;;;;1870564;75;21163;-82
2021/03/07 09:01:37;;;;;;;11.10;5.08;;;7.20;98.50;;;;;;1876041;75;21095;-79
2021/03/07 09:04:06;;;;;;;8.80;4.80;;;7.30;98.50;;;;;;1872209;75;21868;-79
2021/03/07 09:06:36;;;;;;;10.30;4.70;;;7.30;98.40;;;;;;1871475;75;21026;-79
2021/03/07 09:09:09;;;;;;;10.55;5.67;;;7.30;98.60;;;;;;1880206;75;21099;-79
2021/03/07 09:11:40;;;;;;;9.10;5.03;;;7.30;98.20;;;;;;1868915;74;21104;-78
2021/03/07 09:14:07;;;;;;;9.95;5.72;;;7.20;98.10;;;;;;1874317;75;21047;-79
2021/03/07 09:16:44;;;;;;;11.97;5.65;;;7.00;98.50;;;;;;1872137;75;21101;-79
2021/03/07 09:19:27;;;;;;;7.37;5.03;;;7.00;98.80;;;;;;1871300;75;21104;-81
2021/03/07 09:22:17;;;;;;;8.43;5.22;;;7.10;98.90;;;;;;1881544;75;21134;-79
2021/03/07 09:24:53;;;;;;;10.15;5.00;;;7.10;98.80;;;;;;1876828;74;21582;-79
2021/03/07 09:27:20;;;;;;;11.10;5.22;;;7.10;98.80;;;;;;1873886;75;21155;-78
2021/03/07 09:30:12;;;;;;;10.72;5.22;;;7.10;98.80;;;;;;1874260;75;21061;-77
2021/03/07 09:32:42;;;;;;;9.75;5.45;;;7.10;99.00;;;;;;1880310;75;21094;-81
2021/03/07 09:35:27;;;;;;;14.25;5.50;;;7.10;99.20;;;;;;1872181;75;21113;-80
2021/03/07 09:38:04;;;;;;;11.55;5.28;;;7.10;98.90;;;;;;1876734;75;21121;-78
2021/03/07 09:40:37;;;;;;;10.60;6.45;;;7.20;98.80;;;;;;1871318;74;21561;-81
2021/03/07 09:43:07;;;;;;;11.80;6.70;;;7.30;98.60;;;;;;1874560;74;21105;-78
2021/03/07 09:45:37;;;;;;;10.80;6.20;;;7.40;98.40;;;;;;1873226;75;21156;-78
2021/03/07 09:48:06;;;;;;;10.53;6.45;;;7.50;98.20;;;;;;1876365;75;21100;-79
2021/03/07 09:50:34;;;;;;;13.22;6.50;;;7.50;98.00;;;;;;1874042;75;21116;-81
2021/03/07 09:53:04;;;;;;;10.58;6.25;;;7.60;98.30;;;;;;1869900;75;21531;-76
2021/03/07 09:55:35;;;;;;;11.15;6.03;;;7.60;97.90;;;;;;1873423;74;21120;-82
2021/03/07 09:58:07;;;;;;;12.68;6.50;;;7.60;98.10;;;;;;1877272;75;21198;-82
2021/03/07 10:03:33;;;;;;;10.93;6.97;;;7.60;97.90;;;;;;1937470;70;21218;-71
2021/03/07 10:06:06;;;;;;;13.48;7.03;;;7.60;98.00;;;;;;1932176;72;21071;-69
2021/03/07 10:08:35;;;;;;;12.18;7.58;;;7.60;97.40;;;;;;1931645;72;21931;-73
2021/03/07 10:11:20;;;;;;;11.75;7.37;;;7.60;97.80;;;;;;1887068;74;21053;-69
2021/03/07 10:14:05;;;;;;;16.42;8.35;;;7.70;97.60;;;;;;1880077;74;21128;-69
2021/03/07 10:16:34;;;;;;;14.33;7.40;;;7.80;97.70;;;;;;1891918;74;21092;-69
2021/03/07 10:19:05;;;;;;;13.83;7.80;;;8.10;97.70;;;;;;1875035;74;21166;-69
2021/03/07 10:21:33;;;;;;;11.73;6.67;;;8.10;97.20;;;;;;1876395;74;21354;-70
2021/03/07 10:24:07;;;;;;;11.48;6.72;;;8.10;96.90;;;;;;1883807;74;21214;-70
2021/03/07 10:26:37;;;;;;;13.32;7.05;;;8.30;96.60;;;;;;1876137;74;21196;-70
2021/03/07 10:29:24;;;;;;;11.22;6.75;;;8.50;96.60;;;;;;1884175;74;21081;-70
2021/03/07 10:32:10;;;;;;;13.10;6.58;;;8.60;95.80;;;;;;1871076;74;21097;-66
2021/03/07 10:34:43;;;;;;;11.85;6.40;;;8.80;95.80;;;;;;1887380;74;21376;-71
2021/03/07 10:37:29;;;;;;;15.25;7.17;;;8.90;95.90;;;;;;1880802;74;21053;-70
2021/03/07 10:39:57;;;;;;;12.50;7.08;;;9.10;94.90;;;;;;1879727;74;21085;-70
2021/03/07 10:42:33;;;;;;;11.93;6.72;;;9.00;94.40;;;;;;1887952;74;21148;-70
2021/03/07 10:45:18;;;;;;;13.78;6.12;;;9.00;94.50;;;;;;1870398;74;21150;-71
2021/03/07 10:48:07;;;;;;;11.50;7.00;;;9.00;94.50;;;;;;1877122;74;21132;-69
2021/03/07 10:50:36;;;;;;;11.95;6.75;;;9.20;94.40;;;;;;1878097;74;22032;-70
2021/03/07 10:53:05;;;;;;;11.38;6.78;;;9.30;93.70;;;;;;1880992;74;21132;-71
2021/03/07 10:55:32;;;;;;;9.50;6.47;;;9.30;93.60;;;;;;1879670;74;21070;-68
2021/03/07 10:58:00;;;;;;;10.48;7.05;;;9.40;94.10;;;;;;1883124;74;21022;-68
2021/03/07 11:00:27;;;;;;;13.30;7.25;;;9.50;93.90;;;;;;1877114;74;21152;-70
2021/03/07 11:02:55;;;;;;;12.28;7.08;;;9.60;93.50;;;;;;1926237;73;21108;-69
2021/03/07 11:05:23;;;;;;;13.35;6.78;;;9.60;93.40;;;;;;1915620;73;21093;-69
2021/03/07 11:07:52;;;;;;;12.50;7.12;;;9.60;93.30;;;;;;1926438;73;21077;-70
2021/03/07 11:10:21;;;;;;;12.30;6.78;;;9.60;93.40;;;;;;1915001;73;21883;-70
2021/03/07 11:12:49;;;;;;;14.33;7.12;;;9.40;92.90;;;;;;1918014;73;21186;-69
2021/03/07 11:15:18;;;;;;;18.75;7.33;;;9.30;93.40;;;;;;1924926;73;21101;-72
2021/03/07 11:17:46;;;;;;;10.88;7.40;;;9.50;93.80;;;;;;1922768;73;21081;-71
2021/03/07 11:20:15;;;;;;;11.97;7.25;;;9.70;93.70;;;;;;1912733;73;21174;-71
2021/03/07 11:22:43;;;;;;;11.68;7.22;;;9.90;93.80;;;;;;1922305;73;21828;-71
2021/03/07 11:25:11;;;;;;;10.95;8.03;;;9.90;93.00;;;;;;1925321;73;21089;-71
2021/03/07 11:27:39;;;;;;;14.65;7.60;;;10.00;93.40;;;;;;1923577;73;21081;-71
2021/03/07 11:30:08;;;;;;;12.63;8.18;;;10.00;93.10;;;;;;1922612;73;21057;-70
2021/03/07 11:32:35;;;;;;;13.45;7.35;;;10.00;93.10;;;;;;1920168;72;21205;-70
2021/03/07 11:35:04;;;;;;;14.58;8.78;;;9.90;93.10;;;;;;1928250;72;21069;-71
2021/03/07 11:37:32;;;;;;;15.28;8.15;;;9.80;93.50;;;;;;1923772;72;21086;-71
2021/03/07 11:39:59;;;;;;;14.73;8.88;;;9.80;93.10;;;;;;1928134;72;22018;-70
2021/03/07 11:42:28;;;;;;;10.30;7.72;;;9.70;93.20;;;;;;1938043;73;21065;-70
2021/03/07 11:44:56;;;;;;;13.98;8.18;;;9.80;93.40;;;;;;1919996;74;21124;-70
2021/03/07 11:47:23;;;;;;;11.45;8.10;;;9.80;93.40;;;;;;1917225;73;21025;-70
2021/03/07 11:49:51;;;;;;;14.10;8.05;;;9.90;93.60;;;;;;1917369;74;21025;-71
2021/03/07 11:52:18;;;;;;;13.70;8.63;;;9.80;93.40;;;;;;1924914;73;21133;-70
2021/03/07 11:54:46;;;;;;;14.23;9.30;;;9.70;93.40;;;;;;1915601;73;21600;-71
2021/03/07 11:57:13;;;;;;;15.75;8.88;;;9.60;93.60;;;;;;1926682;72;21030;-70
2021/03/07 11:59:41;;;;;;;17.60;10.65;;;9.60;93.90;;;;;;1938336;72;21197;-70
2021/03/07 12:02:08;;;;;;;16.55;9.58;;;9.60;94.40;;;;;;1925845;72;21120;-70
2021/03/07 12:04:36;;;;;;;13.48;8.10;;;9.60;94.40;;;;;;1925467;72;21084;-70
2021/03/07 12:07:03;;;;;;;15.63;9.50;;;9.60;94.20;;;;;;1926704;73;21029;-70
2021/03/07 12:09:31;;;;;;;14.60;9.38;;;9.60;94.20;;;;;;1919812;73;21099;-70
2021/03/07 12:11:59;;;;;;;14.45;8.63;;;9.40;94.00;;;;;;1916154;73;21172;-70
2021/03/07 12:14:28;;;;;;;15.80;8.95;;;9.30;94.40;;;;;;1921063;73;21089;-71
2021/03/07 12:16:55;;;;;;;17.48;9.38;;;9.30;94.50;;;;;;1919090;74;21162;-71
2021/03/07 12:19:24;;;;;;;18.10;10.00;;;9.30;94.30;;;;;;1922076;73;21096;-70
2021/03/07 12:21:51;;;;;;;14.60;9.40;;;9.10;94.40;;;;;;1922427;73;21586;-70
2021/03/07 12:24:19;;;;;;;16.27;9.98;;;8.90;94.80;;;;;;1911099;73;21618;-70
2021/03/07 12:26:47;;;;;;;15.90;10.20;;;8.90;94.80;;;;;;1919021;72;21096;-72
2021/03/07 12:29:15;;;;;;;21.25;10.20;;;8.90;95.20;;;;;;1920386;73;21613;-70
2021/03/07 12:31:42;;;;;;;16.25;10.00;;;9.00;95.00;;;;;;1913900;73;21096;-70
2021/03/07 12:34:10;;;;;;;14.73;10.88;;;8.90;94.80;;;;;;1926118;73;21178;-70
2021/03/07 12:36:37;;;;;;;18.12;10.55;;;8.80;95.50;;;;;;1913641;74;21617;-70
2021/03/07 12:39:05;;;;;;;15.72;10.23;;;8.70;95.20;;;;;;1924278;72;21146;-69
2021/03/07 12:41:32;;;;;;;16.10;9.93;;;8.70;95.40;;;;;;1915327;73;21085;-70
2021/03/07 12:44:00;;;;;;;14.55;10.25;;;8.60;95.30;;;;;;1915632;73;21182;-70
2021/03/07 12:46:27;;;;;;;18.32;10.58;;;8.70;95.60;;;;;;1920889;73;21072;-69
2021/03/07 12:48:55;;;;;;;17.40;10.10;;;8.80;95.90;;;;;;1930862;72;21663;-70
2021/03/07 12:51:22;;;;;;;16.17;10.48;;;8.90;95.50;;;;;;1918298;73;21637;-70
2021/03/07 12:53:50;;;;;;;16.70;10.72;;;8.90;94.80;;;;;;1923042;71;21620;-70
2021/03/07 12:56:18;;;;;;;13.38;10.03;;;8.80;94.90;;;;;;1928319;73;21119;-72
2021/03/07 12:58:45;;;;;;;16.45;10.43;;;8.90;95.20;;;;;;1924638;73;21181;-72
2021/03/07 13:01:13;;;;;;;17.52;11.80;;;8.90;95.10;;;;;;1925148;72;21089;-73
2021/03/07 13:03:40;;;;;;;15.08;10.80;;;9.00;95.40;;;;;;1928260;72;21207;-74
2021/03/07 13:06:08;;;;;;;22.73;11.08;;;8.90;95.30;;;;;;1927077;73;21085;-73
2021/03/07 13:08:35;;;;;;;19.17;12.07;;;8.90;95.40;;;;;;1925474;73;21155;-72
2021/03/07 13:11:07;;;;;;;21.55;12.40;;;8.70;95.50;;;;;;1919994;74;21085;-72
2021/03/07 13:13:35;;;;;;;19.12;13.30;;;8.60;96.30;;;;;;1923118;73;21221;-72
2021/03/07 13:16:03;;;;;;;15.78;12.30;;;8.60;96.60;;;;;;1920306;73;21120;-72
2021/03/07 13:18:30;;;;;;;19.45;13.32;;;8.80;96.60;;;;;;1923696;73;21096;-72
2021/03/07 13:20:58;;;;;;;17.05;13.25;;;8.80;96.00;;;;;;1920856;73;21034;-72
2021/03/07 13:23:25;;;;;;;25.48;14.38;;;8.80;96.20;;;;;;1916033;74;21132;-72
2021/03/07 13:25:53;;;;;;;20.90;13.62;;;8.80;96.00;;;;;;1921975;73;21394;-73
2021/03/07 13:28:20;;;;;;;20.75;13.20;;;8.70;96.00;;;;;;1917675;73;21499;-73
2021/03/07 13:30:48;;;;;;;19.87;12.82;;;8.60;96.10;;;;;;1926114;72;21147;-72
2021/03/07 13:33:17;;;;;;;19.73;13.20;;;8.50;96.40;;;;;;1852616;75;21130;-72
2021/03/07 13:35:44;;;;;;;22.93;14.23;;;8.40;96.70;;;;;;1927354;72;21045;-72
2021/03/07 13:38:12;;;;;;;21.33;13.62;;;8.40;96.90;;;;;;1921470;72;21143;-72